sensor_id;sensor_type;location;lat;lon;timestamp;P1;durP1;ratioP1;P2;durP2;ratioP2
60502;SDS011;51448;51.660;5.824;2022-09-20T00:01:30;9.48;;;2.80;;
60502;SDS011;51448;51.660;5.824;2022-09-20T00:04:00;15.38;;;4.00;;
60502;SDS011;51448;51.660;5.824;2022-09-20T00:06:31;14.57;;;3.20;;
60502;SDS011;51448;51.660;5.824;2022-09-20T00:09:00;10.35;;;3.13;;
60502;SDS011;51448;51.660;5.824;2022-09-20T00:11:30;13.45;;;3.00;;
60502;SDS011;51448;51.660;5.824;2022-09-20T00:14:00;15.15;;;3.42;;
60502;SDS011;51448;51.660;5.824;2022-09-20T00:16:33;10.73;;;3.17;;
60502;SDS011;51448;51.660;5.824;2022-09-20T00:19:05;11.48;;;3.15;;
60502;SDS011;51448;51.660;5.824;2022-09-20T00:21:34;14.95;;;3.45;;
60502;SDS011;51448;51.660;5.824;2022-09-20T00:24:03;12.10;;;3.17;;
60502;SDS011;51448;51.660;5.824;2022-09-20T00:26:32;12.60;;;2.95;;
60502;SDS011;51448;51.660;5.824;2022-09-20T00:28:59;9.98;;;2.80;;
60502;SDS011;51448;51.660;5.824;2022-09-20T00:31:27;9.90;;;2.20;;
60502;SDS011;51448;51.660;5.824;2022-09-20T00:33:55;10.55;;;2.60;;
60502;SDS011;51448;51.660;5.824;2022-09-20T00:36:43;12.27;;;2.97;;
60502;SDS011;51448;51.660;5.824;2022-09-20T00:39:11;14.90;;;3.15;;
60502;SDS011;51448;51.660;5.824;2022-09-20T00:41:43;9.73;;;2.67;;
60502;SDS011;51448;51.660;5.824;2022-09-20T00:50:27;11.05;;;2.90;;
60502;SDS011;51448;51.660;5.824;2022-09-20T00:53:12;13.82;;;2.55;;
60502;SDS011;51448;51.660;5.824;2022-09-20T00:55:51;12.68;;;2.63;;
60502;SDS011;51448;51.660;5.824;2022-09-20T00:58:30;12.40;;;2.88;;
60502;SDS011;51448;51.660;5.824;2022-09-20T01:01:03;10.77;;;2.60;;
60502;SDS011;51448;51.660;5.824;2022-09-20T01:03:33;11.20;;;2.75;;
60502;SDS011;51448;51.660;5.824;2022-09-20T01:06:05;12.40;;;3.15;;
60502;SDS011;51448;51.660;5.824;2022-09-20T01:08:37;10.70;;;2.83;;
60502;SDS011;51448;51.660;5.824;2022-09-20T01:11:11;13.27;;;2.70;;
60502;SDS011;51448;51.660;5.824;2022-09-20T01:13:39;10.35;;;3.00;;
60502;SDS011;51448;51.660;5.824;2022-09-20T01:16:06;11.10;;;3.35;;
60502;SDS011;51448;51.660;5.824;2022-09-20T01:18:36;10.73;;;3.08;;
60502;SDS011;51448;51.660;5.824;2022-09-20T01:21:07;10.82;;;3.65;;
60502;SDS011;51448;51.660;5.824;2022-09-20T01:23:44;15.32;;;4.18;;
60502;SDS011;51448;51.660;5.824;2022-09-20T01:35:24;11.40;;;4.22;;
60502;SDS011;51448;51.660;5.824;2022-09-20T01:41:05;10.52;;;4.22;;
60502;SDS011;51448;51.660;5.824;2022-09-20T01:44:06;13.50;;;4.50;;
60502;SDS011;51448;51.660;5.824;2022-09-20T01:46:40;10.73;;;4.20;;
60502;SDS011;51448;51.660;5.824;2022-09-20T01:55:37;10.63;;;4.32;;
60502;SDS011;51448;51.660;5.824;2022-09-20T02:11:56;14.57;;;4.78;;
60502;SDS011;51448;51.660;5.824;2022-09-20T02:18:38;9.50;;;4.82;;
60502;SDS011;51448;51.660;5.824;2022-09-20T02:27:01;13.93;;;4.70;;
60502;SDS011;51448;51.660;5.824;2022-09-20T02:33:17;13.57;;;4.28;;
60502;SDS011;51448;51.660;5.824;2022-09-20T02:36:15;12.95;;;4.35;;
60502;SDS011;51448;51.660;5.824;2022-09-20T02:43:00;9.63;;;4.25;;
60502;SDS011;51448;51.660;5.824;2022-09-20T02:49:04;11.30;;;4.57;;
60502;SDS011;51448;51.660;5.824;2022-09-20T02:52:02;14.40;;;4.25;;
60502;SDS011;51448;51.660;5.824;2022-09-20T02:54:57;13.85;;;3.92;;
60502;SDS011;51448;51.660;5.824;2022-09-20T02:57:43;13.15;;;4.70;;
60502;SDS011;51448;51.660;5.824;2022-09-20T03:00:43;11.48;;;3.92;;
60502;SDS011;51448;51.660;5.824;2022-09-20T03:06:29;13.85;;;4.68;;
60502;SDS011;51448;51.660;5.824;2022-09-20T03:15:47;11.60;;;4.00;;
60502;SDS011;51448;51.660;5.824;2022-09-20T03:18:10;10.95;;;3.88;;
60502;SDS011;51448;51.660;5.824;2022-09-20T03:33:11;12.52;;;4.30;;
60502;SDS011;51448;51.660;5.824;2022-09-20T03:36:41;10.02;;;4.40;;
60502;SDS011;51448;51.660;5.824;2022-09-20T03:39:42;12.98;;;4.43;;
60502;SDS011;51448;51.660;5.824;2022-09-20T03:42:29;12.05;;;4.65;;
60502;SDS011;51448;51.660;5.824;2022-09-20T03:50:57;13.73;;;4.82;;
60502;SDS011;51448;51.660;5.824;2022-09-20T04:08:50;12.43;;;4.18;;
60502;SDS011;51448;51.660;5.824;2022-09-20T04:11:45;14.50;;;4.38;;
60502;SDS011;51448;51.660;5.824;2022-09-20T04:14:39;10.23;;;4.15;;
60502;SDS011;51448;51.660;5.824;2022-09-20T04:22:41;11.25;;;4.03;;
60502;SDS011;51448;51.660;5.824;2022-09-20T04:25:14;10.93;;;4.40;;
60502;SDS011;51448;51.660;5.824;2022-09-20T04:28:05;12.18;;;3.90;;
60502;SDS011;51448;51.660;5.824;2022-09-20T04:33:19;11.95;;;4.05;;
60502;SDS011;51448;51.660;5.824;2022-09-20T04:36:10;9.45;;;3.47;;
60502;SDS011;51448;51.660;5.824;2022-09-20T04:39:30;11.90;;;4.00;;
60502;SDS011;51448;51.660;5.824;2022-09-20T04:49:15;10.23;;;3.83;;
60502;SDS011;51448;51.660;5.824;2022-09-20T04:52:13;9.70;;;3.75;;
60502;SDS011;51448;51.660;5.824;2022-09-20T04:55:19;11.30;;;3.55;;
60502;SDS011;51448;51.660;5.824;2022-09-20T04:58:29;9.63;;;3.70;;
60502;SDS011;51448;51.660;5.824;2022-09-20T05:07:18;9.35;;;3.05;;
60502;SDS011;51448;51.660;5.824;2022-09-20T05:19:19;9.32;;;3.58;;
60502;SDS011;51448;51.660;5.824;2022-09-20T05:22:08;11.20;;;3.60;;
60502;SDS011;51448;51.660;5.824;2022-09-20T05:30:58;6.80;;;2.80;;
60502;SDS011;51448;51.660;5.824;2022-09-20T05:33:50;7.25;;;2.95;;
60502;SDS011;51448;51.660;5.824;2022-09-20T05:36:42;10.40;;;2.97;;
60502;SDS011;51448;51.660;5.824;2022-09-20T05:42:33;9.35;;;3.13;;
60502;SDS011;51448;51.660;5.824;2022-09-20T05:45:19;6.93;;;2.30;;
60502;SDS011;51448;51.660;5.824;2022-09-20T05:47:56;8.30;;;2.47;;
60502;SDS011;51448;51.660;5.824;2022-09-20T05:50:54;8.23;;;2.90;;
60502;SDS011;51448;51.660;5.824;2022-09-20T05:57:20;8.52;;;3.33;;
60502;SDS011;51448;51.660;5.824;2022-09-20T06:02:58;7.85;;;3.17;;
60502;SDS011;51448;51.660;5.824;2022-09-20T06:17:35;11.15;;;3.80;;
60502;SDS011;51448;51.660;5.824;2022-09-20T06:20:28;11.10;;;3.92;;
60502;SDS011;51448;51.660;5.824;2022-09-20T06:23:09;7.93;;;3.80;;
60502;SDS011;51448;51.660;5.824;2022-09-20T06:25:39;11.30;;;4.28;;
60502;SDS011;51448;51.660;5.824;2022-09-20T06:28:18;11.77;;;5.43;;
60502;SDS011;51448;51.660;5.824;2022-09-20T06:30:50;16.23;;;5.05;;
60502;SDS011;51448;51.660;5.824;2022-09-20T06:33:25;12.10;;;4.97;;
60502;SDS011;51448;51.660;5.824;2022-09-20T06:36:02;12.80;;;5.22;;
60502;SDS011;51448;51.660;5.824;2022-09-20T06:42:53;8.73;;;4.38;;
60502;SDS011;51448;51.660;5.824;2022-09-20T06:45:20;8.48;;;3.75;;
60502;SDS011;51448;51.660;5.824;2022-09-20T06:47:48;8.85;;;3.85;;
60502;SDS011;51448;51.660;5.824;2022-09-20T06:50:15;8.50;;;3.35;;
60502;SDS011;51448;51.660;5.824;2022-09-20T06:52:44;11.60;;;3.78;;
60502;SDS011;51448;51.660;5.824;2022-09-20T06:55:16;11.27;;;3.55;;
60502;SDS011;51448;51.660;5.824;2022-09-20T06:57:55;10.73;;;3.63;;
60502;SDS011;51448;51.660;5.824;2022-09-20T07:00:23;9.18;;;3.42;;
60502;SDS011;51448;51.660;5.824;2022-09-20T07:02:50;9.63;;;3.45;;
60502;SDS011;51448;51.660;5.824;2022-09-20T07:05:18;10.35;;;3.20;;
60502;SDS011;51448;51.660;5.824;2022-09-20T07:07:48;10.48;;;3.20;;
60502;SDS011;51448;51.660;5.824;2022-09-20T07:10:16;12.50;;;3.38;;
60502;SDS011;51448;51.660;5.824;2022-09-20T07:12:43;8.57;;;3.10;;
60502;SDS011;51448;51.660;5.824;2022-09-20T07:15:10;8.13;;;3.05;;
60502;SDS011;51448;51.660;5.824;2022-09-20T07:17:38;13.75;;;3.33;;
60502;SDS011;51448;51.660;5.824;2022-09-20T07:20:05;8.25;;;2.72;;
60502;SDS011;51448;51.660;5.824;2022-09-20T07:22:33;7.63;;;2.90;;
60502;SDS011;51448;51.660;5.824;2022-09-20T07:25:00;8.85;;;3.10;;
60502;SDS011;51448;51.660;5.824;2022-09-20T07:27:28;9.02;;;2.78;;
60502;SDS011;51448;51.660;5.824;2022-09-20T07:29:56;8.63;;;3.33;;
60502;SDS011;51448;51.660;5.824;2022-09-20T07:32:23;9.05;;;3.17;;
60502;SDS011;51448;51.660;5.824;2022-09-20T07:34:50;9.38;;;3.10;;
60502;SDS011;51448;51.660;5.824;2022-09-20T07:37:18;7.93;;;2.95;;
60502;SDS011;51448;51.660;5.824;2022-09-20T07:39:45;7.90;;;2.60;;
60502;SDS011;51448;51.660;5.824;2022-09-20T07:42:13;10.48;;;3.00;;
60502;SDS011;51448;51.660;5.824;2022-09-20T07:44:40;9.07;;;2.65;;
60502;SDS011;51448;51.660;5.824;2022-09-20T07:47:10;10.80;;;3.33;;
60502;SDS011;51448;51.660;5.824;2022-09-20T07:49:40;8.27;;;3.03;;
60502;SDS011;51448;51.660;5.824;2022-09-20T07:52:07;9.77;;;3.13;;
60502;SDS011;51448;51.660;5.824;2022-09-20T07:54:36;7.95;;;2.70;;
60502;SDS011;51448;51.660;5.824;2022-09-20T07:57:03;8.73;;;3.00;;
60502;SDS011;51448;51.660;5.824;2022-09-20T07:59:31;8.55;;;2.90;;
60502;SDS011;51448;51.660;5.824;2022-09-20T08:01:58;9.23;;;2.70;;
60502;SDS011;51448;51.660;5.824;2022-09-20T08:04:26;8.50;;;2.85;;
60502;SDS011;51448;51.660;5.824;2022-09-20T08:06:54;9.45;;;3.00;;
60502;SDS011;51448;51.660;5.824;2022-09-20T08:09:22;9.38;;;2.70;;
60502;SDS011;51448;51.660;5.824;2022-09-20T08:11:50;9.88;;;2.70;;
60502;SDS011;51448;51.660;5.824;2022-09-20T08:14:18;9.88;;;2.92;;
60502;SDS011;51448;51.660;5.824;2022-09-20T08:16:46;7.88;;;2.30;;
60502;SDS011;51448;51.660;5.824;2022-09-20T08:19:20;9.65;;;2.67;;
60502;SDS011;51448;51.660;5.824;2022-09-20T08:21:49;11.60;;;2.60;;
60502;SDS011;51448;51.660;5.824;2022-09-20T08:24:20;8.05;;;2.25;;
60502;SDS011;51448;51.660;5.824;2022-09-20T08:26:47;7.93;;;2.40;;
60502;SDS011;51448;51.660;5.824;2022-09-20T08:29:15;11.05;;;1.90;;
60502;SDS011;51448;51.660;5.824;2022-09-20T08:31:42;9.48;;;2.97;;
60502;SDS011;51448;51.660;5.824;2022-09-20T08:34:11;8.02;;;2.50;;
60502;SDS011;51448;51.660;5.824;2022-09-20T08:36:42;10.18;;;2.55;;
60502;SDS011;51448;51.660;5.824;2022-09-20T08:39:13;8.50;;;2.55;;
60502;SDS011;51448;51.660;5.824;2022-09-20T08:42:06;7.47;;;2.25;;
60502;SDS011;51448;51.660;5.824;2022-09-20T08:44:50;9.80;;;2.35;;
60502;SDS011;51448;51.660;5.824;2022-09-20T08:47:28;9.30;;;2.20;;
60502;SDS011;51448;51.660;5.824;2022-09-20T08:50:03;9.77;;;2.88;;
60502;SDS011;51448;51.660;5.824;2022-09-20T08:52:39;9.18;;;3.17;;
60502;SDS011;51448;51.660;5.824;2022-09-20T08:57:55;7.82;;;2.00;;
60502;SDS011;51448;51.660;5.824;2022-09-20T09:00:25;5.95;;;1.80;;
60502;SDS011;51448;51.660;5.824;2022-09-20T09:03:06;11.73;;;2.22;;
60502;SDS011;51448;51.660;5.824;2022-09-20T09:05:43;8.25;;;2.13;;
60502;SDS011;51448;51.660;5.824;2022-09-20T09:08:26;6.75;;;1.80;;
60502;SDS011;51448;51.660;5.824;2022-09-20T09:11:04;10.93;;;1.63;;
60502;SDS011;51448;51.660;5.824;2022-09-20T09:16:58;9.75;;;2.42;;
60502;SDS011;51448;51.660;5.824;2022-09-20T09:19:27;12.63;;;1.92;;
60502;SDS011;51448;51.660;5.824;2022-09-20T09:22:17;6.78;;;1.77;;
60502;SDS011;51448;51.660;5.824;2022-09-20T09:25:09;8.02;;;1.73;;
60502;SDS011;51448;51.660;5.824;2022-09-20T09:30:24;8.07;;;1.60;;
60502;SDS011;51448;51.660;5.824;2022-09-20T09:33:13;8.43;;;2.05;;
60502;SDS011;51448;51.660;5.824;2022-09-20T09:38:35;6.35;;;1.65;;
60502;SDS011;51448;51.660;5.824;2022-09-20T09:41:06;11.15;;;1.80;;
60502;SDS011;51448;51.660;5.824;2022-09-20T09:44:05;6.22;;;1.42;;
60502;SDS011;51448;51.660;5.824;2022-09-20T09:46:51;8.55;;;1.60;;
60502;SDS011;51448;51.660;5.824;2022-09-20T09:49:22;7.47;;;1.75;;
60502;SDS011;51448;51.660;5.824;2022-09-20T09:54:45;6.05;;;1.40;;
60502;SDS011;51448;51.660;5.824;2022-09-20T09:57:27;11.60;;;1.48;;
60502;SDS011;51448;51.660;5.824;2022-09-20T10:00:21;9.85;;;1.27;;
60502;SDS011;51448;51.660;5.824;2022-09-20T10:06:00;6.85;;;1.27;;
60502;SDS011;51448;51.660;5.824;2022-09-20T10:17:25;10.40;;;1.30;;
60502;SDS011;51448;51.660;5.824;2022-09-20T10:20:51;8.50;;;1.50;;
60502;SDS011;51448;51.660;5.824;2022-09-20T10:23:23;5.68;;;1.00;;
60502;SDS011;51448;51.660;5.824;2022-09-20T10:41:38;5.63;;;0.90;;
60502;SDS011;51448;51.660;5.824;2022-09-20T10:44:48;4.75;;;0.90;;
60502;SDS011;51448;51.660;5.824;2022-09-20T10:54:09;3.25;;;0.60;;
60502;SDS011;51448;51.660;5.824;2022-09-20T10:57:01;6.80;;;0.75;;
60502;SDS011;51448;51.660;5.824;2022-09-20T10:59:51;8.70;;;1.25;;
60502;SDS011;51448;51.660;5.824;2022-09-20T11:05:59;5.35;;;1.27;;
60502;SDS011;51448;51.660;5.824;2022-09-20T11:08:42;6.85;;;1.10;;
60502;SDS011;51448;51.660;5.824;2022-09-20T11:11:22;5.82;;;0.90;;
60502;SDS011;51448;51.660;5.824;2022-09-20T11:14:02;5.85;;;0.88;;
60502;SDS011;51448;51.660;5.824;2022-09-20T11:16:39;5.47;;;0.90;;
60502;SDS011;51448;51.660;5.824;2022-09-20T11:19:28;5.30;;;0.68;;
60502;SDS011;51448;51.660;5.824;2022-09-20T11:25:03;5.07;;;1.00;;
60502;SDS011;51448;51.660;5.824;2022-09-20T11:27:50;8.70;;;0.98;;
60502;SDS011;51448;51.660;5.824;2022-09-20T11:30:24;6.45;;;0.98;;
60502;SDS011;51448;51.660;5.824;2022-09-20T11:41:23;5.03;;;0.70;;
60502;SDS011;51448;51.660;5.824;2022-09-20T11:44:12;5.75;;;0.88;;
60502;SDS011;51448;51.660;5.824;2022-09-20T11:46:47;5.78;;;0.80;;
60502;SDS011;51448;51.660;5.824;2022-09-20T11:49:28;5.75;;;0.90;;
60502;SDS011;51448;51.660;5.824;2022-09-20T11:58:04;5.05;;;0.80;;
60502;SDS011;51448;51.660;5.824;2022-09-20T12:00:36;7.07;;;0.93;;
60502;SDS011;51448;51.660;5.824;2022-09-20T12:03:20;4.03;;;0.73;;
60502;SDS011;51448;51.660;5.824;2022-09-20T12:06:00;6.45;;;0.82;;
60502;SDS011;51448;51.660;5.824;2022-09-20T12:08:32;4.20;;;0.70;;
60502;SDS011;51448;51.660;5.824;2022-09-20T12:11:10;4.78;;;0.77;;
60502;SDS011;51448;51.660;5.824;2022-09-20T12:13:50;3.15;;;0.70;;
60502;SDS011;51448;51.660;5.824;2022-09-20T12:16:44;6.03;;;0.90;;
60502;SDS011;51448;51.660;5.824;2022-09-20T12:19:14;6.43;;;1.00;;
60502;SDS011;51448;51.660;5.824;2022-09-20T12:24:34;7.47;;;0.77;;
60502;SDS011;51448;51.660;5.824;2022-09-20T12:27:19;5.15;;;0.85;;
60502;SDS011;51448;51.660;5.824;2022-09-20T12:30:15;5.28;;;0.95;;
60502;SDS011;51448;51.660;5.824;2022-09-20T12:32:55;4.85;;;0.80;;
60502;SDS011;51448;51.660;5.824;2022-09-20T12:41:04;5.03;;;0.73;;
60502;SDS011;51448;51.660;5.824;2022-09-20T12:43:45;6.63;;;0.80;;
60502;SDS011;51448;51.660;5.824;2022-09-20T12:46:40;3.72;;;0.65;;
60502;SDS011;51448;51.660;5.824;2022-09-20T12:58:51;4.28;;;0.60;;
60502;SDS011;51448;51.660;5.824;2022-09-20T13:03:49;13.27;;;1.45;;
60502;SDS011;51448;51.660;5.824;2022-09-20T13:11:38;7.22;;;0.90;;
60502;SDS011;51448;51.660;5.824;2022-09-20T13:14:12;6.40;;;0.70;;
60502;SDS011;51448;51.660;5.824;2022-09-20T13:16:52;6.03;;;0.80;;
60502;SDS011;51448;51.660;5.824;2022-09-20T13:19:36;6.13;;;0.90;;
60502;SDS011;51448;51.660;5.824;2022-09-20T13:22:24;5.15;;;0.80;;
60502;SDS011;51448;51.660;5.824;2022-09-20T13:25:01;6.57;;;0.80;;
60502;SDS011;51448;51.660;5.824;2022-09-20T13:27:34;6.00;;;0.88;;
60502;SDS011;51448;51.660;5.824;2022-09-20T13:35:52;4.43;;;0.80;;
60502;SDS011;51448;51.660;5.824;2022-09-20T13:38:25;7.78;;;1.08;;
60502;SDS011;51448;51.660;5.824;2022-09-20T13:40:59;4.57;;;0.85;;
60502;SDS011;51448;51.660;5.824;2022-09-20T13:43:44;4.40;;;0.60;;
60502;SDS011;51448;51.660;5.824;2022-09-20T13:46:41;8.20;;;0.98;;
60502;SDS011;51448;51.660;5.824;2022-09-20T13:49:17;4.57;;;0.70;;
60502;SDS011;51448;51.660;5.824;2022-09-20T13:51:47;6.47;;;1.00;;
60502;SDS011;51448;51.660;5.824;2022-09-20T13:54:20;6.45;;;0.77;;
60502;SDS011;51448;51.660;5.824;2022-09-20T13:57:04;6.50;;;0.80;;
60502;SDS011;51448;51.660;5.824;2022-09-20T13:59:43;4.85;;;0.93;;
60502;SDS011;51448;51.660;5.824;2022-09-20T14:02:22;6.45;;;1.40;;
60502;SDS011;51448;51.660;5.824;2022-09-20T14:05:04;6.20;;;1.00;;
60502;SDS011;51448;51.660;5.824;2022-09-20T14:07:33;4.88;;;0.95;;
60502;SDS011;51448;51.660;5.824;2022-09-20T14:10:02;5.45;;;0.82;;
60502;SDS011;51448;51.660;5.824;2022-09-20T14:12:31;7.13;;;1.05;;
60502;SDS011;51448;51.660;5.824;2022-09-20T14:14:59;6.25;;;1.17;;
60502;SDS011;51448;51.660;5.824;2022-09-20T14:17:35;7.18;;;1.02;;
60502;SDS011;51448;51.660;5.824;2022-09-20T14:20:04;6.47;;;0.63;;
60502;SDS011;51448;51.660;5.824;2022-09-20T14:22:33;6.35;;;0.85;;
60502;SDS011;51448;51.660;5.824;2022-09-20T14:27:40;7.10;;;1.15;;
60502;SDS011;51448;51.660;5.824;2022-09-20T14:30:27;5.05;;;0.80;;
60502;SDS011;51448;51.660;5.824;2022-09-20T14:33:02;4.45;;;0.75;;
60502;SDS011;51448;51.660;5.824;2022-09-20T14:35:47;3.88;;;0.90;;
60502;SDS011;51448;51.660;5.824;2022-09-20T14:38:21;5.88;;;1.10;;
60502;SDS011;51448;51.660;5.824;2022-09-20T14:40:52;8.10;;;1.00;;
60502;SDS011;51448;51.660;5.824;2022-09-20T14:43:33;3.67;;;0.80;;
60502;SDS011;51448;51.660;5.824;2022-09-20T14:46:14;6.70;;;1.15;;
60502;SDS011;51448;51.660;5.824;2022-09-20T14:48:43;8.13;;;1.10;;
60502;SDS011;51448;51.660;5.824;2022-09-20T14:53:42;4.40;;;0.90;;
60502;SDS011;51448;51.660;5.824;2022-09-20T14:56:16;5.67;;;0.70;;
60502;SDS011;51448;51.660;5.824;2022-09-20T14:59:03;4.97;;;0.65;;
60502;SDS011;51448;51.660;5.824;2022-09-20T15:01:55;8.02;;;0.80;;
60502;SDS011;51448;51.660;5.824;2022-09-20T15:04:29;7.38;;;0.88;;
60502;SDS011;51448;51.660;5.824;2022-09-20T15:06:59;7.70;;;1.10;;
60502;SDS011;51448;51.660;5.824;2022-09-20T15:11:59;6.85;;;1.20;;
60502;SDS011;51448;51.660;5.824;2022-09-20T15:14:38;5.53;;;1.02;;
60502;SDS011;51448;51.660;5.824;2022-09-20T15:17:15;7.00;;;1.65;;
60502;SDS011;51448;51.660;5.824;2022-09-20T15:19:47;7.20;;;1.60;;
60502;SDS011;51448;51.660;5.824;2022-09-20T15:22:16;6.88;;;1.15;;
60502;SDS011;51448;51.660;5.824;2022-09-20T15:24:43;6.85;;;1.27;;
60502;SDS011;51448;51.660;5.824;2022-09-20T15:27:11;5.90;;;1.00;;
60502;SDS011;51448;51.660;5.824;2022-09-20T15:29:38;8.00;;;1.60;;
60502;SDS011;51448;51.660;5.824;2022-09-20T15:32:15;12.57;;;4.70;;
60502;SDS011;51448;51.660;5.824;2022-09-20T15:34:43;8.68;;;1.40;;
60502;SDS011;51448;51.660;5.824;2022-09-20T15:37:18;7.82;;;1.10;;
60502;SDS011;51448;51.660;5.824;2022-09-20T15:39:51;5.05;;;1.02;;
60502;SDS011;51448;51.660;5.824;2022-09-20T15:42:22;6.85;;;1.00;;
60502;SDS011;51448;51.660;5.824;2022-09-20T15:45:34;4.28;;;1.23;;
60502;SDS011;51448;51.660;5.824;2022-09-20T15:48:08;6.30;;;1.05;;
60502;SDS011;51448;51.660;5.824;2022-09-20T15:51:06;8.60;;;1.48;;
60502;SDS011;51448;51.660;5.824;2022-09-20T15:56:36;6.38;;;1.15;;
60502;SDS011;51448;51.660;5.824;2022-09-20T15:59:07;5.22;;;1.10;;
60502;SDS011;51448;51.660;5.824;2022-09-20T16:01:38;10.40;;;1.30;;
60502;SDS011;51448;51.660;5.824;2022-09-20T16:04:15;7.82;;;1.10;;
60502;SDS011;51448;51.660;5.824;2022-09-20T16:07:13;5.57;;;0.90;;
60502;SDS011;51448;51.660;5.824;2022-09-20T16:09:44;6.78;;;1.20;;
60502;SDS011;51448;51.660;5.824;2022-09-20T16:12:11;5.93;;;1.20;;
60502;SDS011;51448;51.660;5.824;2022-09-20T16:14:39;6.25;;;0.98;;
60502;SDS011;51448;51.660;5.824;2022-09-20T16:17:06;6.13;;;1.02;;
60502;SDS011;51448;51.660;5.824;2022-09-20T16:19:33;4.03;;;1.10;;
60502;SDS011;51448;51.660;5.824;2022-09-20T16:22:01;5.97;;;1.42;;
60502;SDS011;51448;51.660;5.824;2022-09-20T16:24:30;9.57;;;1.55;;
60502;SDS011;51448;51.660;5.824;2022-09-20T16:27:26;6.70;;;1.20;;
60502;SDS011;51448;51.660;5.824;2022-09-20T16:29:54;8.85;;;1.20;;
60502;SDS011;51448;51.660;5.824;2022-09-20T16:32:21;7.78;;;1.50;;
60502;SDS011;51448;51.660;5.824;2022-09-20T16:34:49;7.32;;;1.40;;
60502;SDS011;51448;51.660;5.824;2022-09-20T16:37:17;6.82;;;1.23;;
60502;SDS011;51448;51.660;5.824;2022-09-20T16:39:44;5.50;;;1.05;;
60502;SDS011;51448;51.660;5.824;2022-09-20T16:42:12;5.65;;;1.10;;
60502;SDS011;51448;51.660;5.824;2022-09-20T16:44:40;6.43;;;0.90;;
60502;SDS011;51448;51.660;5.824;2022-09-20T16:47:10;7.15;;;1.05;;
60502;SDS011;51448;51.660;5.824;2022-09-20T16:49:48;11.95;;;1.52;;
60502;SDS011;51448;51.660;5.824;2022-09-20T16:52:16;9.73;;;1.30;;
60502;SDS011;51448;51.660;5.824;2022-09-20T16:54:44;7.70;;;1.08;;
60502;SDS011;51448;51.660;5.824;2022-09-20T16:57:11;3.78;;;0.90;;
60502;SDS011;51448;51.660;5.824;2022-09-20T16:59:41;7.03;;;1.17;;
60502;SDS011;51448;51.660;5.824;2022-09-20T17:02:09;6.38;;;1.15;;
60502;SDS011;51448;51.660;5.824;2022-09-20T17:04:38;6.05;;;1.05;;
60502;SDS011;51448;51.660;5.824;2022-09-20T17:07:06;9.85;;;1.08;;
60502;SDS011;51448;51.660;5.824;2022-09-20T17:09:34;6.05;;;1.20;;
60502;SDS011;51448;51.660;5.824;2022-09-20T17:12:13;4.80;;;0.80;;
60502;SDS011;51448;51.660;5.824;2022-09-20T17:14:44;7.93;;;1.00;;
60502;SDS011;51448;51.660;5.824;2022-09-20T17:17:17;5.10;;;1.40;;
60502;SDS011;51448;51.660;5.824;2022-09-20T17:19:47;5.75;;;1.00;;
60502;SDS011;51448;51.660;5.824;2022-09-20T17:22:17;5.22;;;0.90;;
60502;SDS011;51448;51.660;5.824;2022-09-20T17:24:45;5.40;;;1.08;;
60502;SDS011;51448;51.660;5.824;2022-09-20T17:27:12;7.15;;;1.38;;
60502;SDS011;51448;51.660;5.824;2022-09-20T17:29:40;5.75;;;1.45;;
60502;SDS011;51448;51.660;5.824;2022-09-20T17:32:07;7.47;;;0.90;;
60502;SDS011;51448;51.660;5.824;2022-09-20T17:34:35;8.88;;;1.10;;
60502;SDS011;51448;51.660;5.824;2022-09-20T17:37:02;6.60;;;1.30;;
60502;SDS011;51448;51.660;5.824;2022-09-20T17:39:30;5.47;;;1.27;;
60502;SDS011;51448;51.660;5.824;2022-09-20T17:41:58;7.93;;;1.10;;
60502;SDS011;51448;51.660;5.824;2022-09-20T17:44:26;6.25;;;1.38;;
60502;SDS011;51448;51.660;5.824;2022-09-20T17:46:54;6.38;;;1.10;;
60502;SDS011;51448;51.660;5.824;2022-09-20T17:49:22;6.57;;;1.20;;
60502;SDS011;51448;51.660;5.824;2022-09-20T17:51:51;6.82;;;1.40;;
60502;SDS011;51448;51.660;5.824;2022-09-20T17:54:21;4.53;;;1.00;;
60502;SDS011;51448;51.660;5.824;2022-09-20T17:56:51;7.28;;;1.23;;
60502;SDS011;51448;51.660;5.824;2022-09-20T17:59:22;10.68;;;1.42;;
60502;SDS011;51448;51.660;5.824;2022-09-20T18:01:50;6.93;;;1.70;;
60502;SDS011;51448;51.660;5.824;2022-09-20T18:04:20;5.90;;;1.30;;
60502;SDS011;51448;51.660;5.824;2022-09-20T18:06:50;6.70;;;1.40;;
60502;SDS011;51448;51.660;5.824;2022-09-20T18:09:20;6.10;;;1.15;;
60502;SDS011;51448;51.660;5.824;2022-09-20T18:11:53;7.55;;;1.27;;
60502;SDS011;51448;51.660;5.824;2022-09-20T18:14:23;9.32;;;1.52;;
60502;SDS011;51448;51.660;5.824;2022-09-20T18:16:55;6.30;;;1.60;;
60502;SDS011;51448;51.660;5.824;2022-09-20T18:19:27;4.72;;;1.27;;
60502;SDS011;51448;51.660;5.824;2022-09-20T18:22:00;7.65;;;1.90;;
60502;SDS011;51448;51.660;5.824;2022-09-20T18:24:29;6.53;;;1.70;;
60502;SDS011;51448;51.660;5.824;2022-09-20T18:26:57;7.85;;;1.55;;
60502;SDS011;51448;51.660;5.824;2022-09-20T18:29:26;7.63;;;1.40;;
60502;SDS011;51448;51.660;5.824;2022-09-20T18:31:55;7.07;;;1.50;;
60502;SDS011;51448;51.660;5.824;2022-09-20T18:34:24;5.45;;;1.70;;
60502;SDS011;51448;51.660;5.824;2022-09-20T18:36:57;6.85;;;1.50;;
60502;SDS011;51448;51.660;5.824;2022-09-20T18:39:27;8.30;;;2.00;;
60502;SDS011;51448;51.660;5.824;2022-09-20T18:42:06;7.72;;;1.90;;
60502;SDS011;51448;51.660;5.824;2022-09-20T18:44:35;6.22;;;1.65;;
60502;SDS011;51448;51.660;5.824;2022-09-20T18:47:03;7.28;;;1.90;;
60502;SDS011;51448;51.660;5.824;2022-09-20T18:49:31;6.57;;;1.52;;
60502;SDS011;51448;51.660;5.824;2022-09-20T18:51:59;6.18;;;1.77;;
60502;SDS011;51448;51.660;5.824;2022-09-20T18:54:30;10.60;;;2.57;;
60502;SDS011;51448;51.660;5.824;2022-09-20T18:56:59;6.13;;;1.98;;
60502;SDS011;51448;51.660;5.824;2022-09-20T18:59:27;6.35;;;1.80;;
60502;SDS011;51448;51.660;5.824;2022-09-20T19:01:58;5.95;;;1.80;;
60502;SDS011;51448;51.660;5.824;2022-09-20T19:04:50;6.45;;;2.00;;
60502;SDS011;51448;51.660;5.824;2022-09-20T19:07:57;5.82;;;2.08;;
60502;SDS011;51448;51.660;5.824;2022-09-20T19:11:25;8.90;;;2.08;;
60502;SDS011;51448;51.660;5.824;2022-09-20T19:14:02;7.30;;;2.25;;
60502;SDS011;51448;51.660;5.824;2022-09-20T19:16:42;7.63;;;2.30;;
60502;SDS011;51448;51.660;5.824;2022-09-20T19:19:42;8.55;;;2.70;;
60502;SDS011;51448;51.660;5.824;2022-09-20T19:22:33;7.97;;;2.95;;
60502;SDS011;51448;51.660;5.824;2022-09-20T19:25:31;7.35;;;2.30;;
60502;SDS011;51448;51.660;5.824;2022-09-20T19:28:10;7.90;;;2.67;;
60502;SDS011;51448;51.660;5.824;2022-09-20T19:30:40;7.10;;;2.57;;
60502;SDS011;51448;51.660;5.824;2022-09-20T19:33:11;6.72;;;2.90;;
60502;SDS011;51448;51.660;5.824;2022-09-20T19:35:49;8.02;;;3.05;;
60502;SDS011;51448;51.660;5.824;2022-09-20T19:38:34;7.32;;;3.38;;
60502;SDS011;51448;51.660;5.824;2022-09-20T19:44:01;13.23;;;4.83;;
60502;SDS011;51448;51.660;5.824;2022-09-20T19:50:13;9.93;;;4.63;;
60502;SDS011;51448;51.660;5.824;2022-09-20T19:52:54;9.18;;;3.83;;
60502;SDS011;51448;51.660;5.824;2022-09-20T19:55:22;10.75;;;3.47;;
60502;SDS011;51448;51.660;5.824;2022-09-20T19:57:50;10.57;;;3.50;;
60502;SDS011;51448;51.660;5.824;2022-09-20T20:00:18;8.50;;;3.20;;
60502;SDS011;51448;51.660;5.824;2022-09-20T20:02:47;7.70;;;3.20;;
60502;SDS011;51448;51.660;5.824;2022-09-20T20:05:16;7.07;;;2.95;;
60502;SDS011;51448;51.660;5.824;2022-09-20T20:07:48;5.40;;;2.47;;
60502;SDS011;51448;51.660;5.824;2022-09-20T20:19:46;10.68;;;2.60;;
60502;SDS011;51448;51.660;5.824;2022-09-20T20:28:09;7.22;;;2.85;;
60502;SDS011;51448;51.660;5.824;2022-09-20T20:30:36;7.13;;;2.70;;
60502;SDS011;51448;51.660;5.824;2022-09-20T20:33:03;10.25;;;3.20;;
60502;SDS011;51448;51.660;5.824;2022-09-20T20:35:31;7.45;;;2.58;;